Time;durP1;ratioP1;P1;durP2;ratioP2;P2;SDS_P1;SDS_P2;PMS_P1;PMS_P2;Temp;Humidity;BMP_temperature;BMP_pressure;BME280_temperature;BME280_humidity;BME280_pressure;Samples;Min_cycle;Max_cycle;Signal;HPM_P1;HPM_P2
2022/12/21 00:01:27;;;;;;;33.35;17.82;;;;;;;1.57;67.87;97342.88;1823212;76;26524;-72
2022/12/21 00:03:57;;;;;;;32.78;17.25;;;;;;;1.58;67.83;97350.67;1811011;76;25821;-72
2022/12/21 00:06:27;;;;;;;28.40;15.80;;;;;;;1.56;67.90;97343.36;1824227;77;27429;-71
2022/12/21 00:08:56;;;;;;;31.55;16.17;;;;;;;1.58;67.77;97353.33;1819775;76;26651;-72
2022/12/21 00:11:24;;;;;;;31.85;16.35;;;;;;;1.63;67.70;97356.37;1811018;76;25903;-70
2022/12/21 00:13:52;;;;;;;29.23;15.80;;;;;;;1.64;67.62;97346.06;1796903;76;25740;-71
2022/12/21 00:16:23;;;;;;;27.90;15.80;;;;;;;1.64;67.53;97352.72;1770904;77;26372;-69
2022/12/21 00:18:50;;;;;;;32.55;16.35;;;;;;;1.65;67.41;97353.55;1802741;77;28154;-71
2022/12/21 00:21:22;;;;;;;31.15;16.48;;;;;;;1.68;67.36;97355.41;1773526;77;25696;-71
2022/12/21 00:23:51;;;;;;;33.60;18.62;;;;;;;1.69;67.33;97363.70;1718601;81;25752;-70
2022/12/21 00:26:21;;;;;;;35.15;18.75;;;;;;;1.74;67.25;97348.61;1731022;81;26520;-70
2022/12/21 00:28:51;;;;;;;34.33;17.90;;;;;;;1.76;67.21;97360.77;1730875;81;25752;-71
2022/12/21 00:31:21;;;;;;;34.27;17.98;;;;;;;1.75;67.18;97371.08;1731008;81;27450;-70
2022/12/21 00:33:48;;;;;;;29.12;17.20;;;;;;;1.75;67.17;97364.42;1730767;81;25820;-68
2022/12/21 00:36:18;;;;;;;30.17;16.80;;;;;;;1.77;67.12;97370.43;1730956;81;26156;-70
2022/12/21 00:38:47;;;;;;;29.48;16.48;;;;;;;1.76;67.05;97367.43;1730983;81;25844;-70
2022/12/21 00:41:16;;;;;;;30.27;16.60;;;;;;;1.77;67.07;97374.42;1730920;81;25863;-70
2022/12/21 00:43:44;;;;;;;29.18;15.65;;;;;;;1.78;67.05;97386.73;1730933;81;28545;-70
2022/12/21 00:46:18;;;;;;;32.05;16.90;;;;;;;1.77;66.97;97374.91;1730901;81;25845;-72
2022/12/21 00:48:46;;;;;;;29.05;15.83;;;;;;;1.76;67.00;97361.27;1729415;81;25761;-69
2022/12/21 00:51:17;;;;;;;28.30;15.55;;;;;;;1.74;67.02;97357.92;1730818;81;25858;-70
2022/12/21 00:53:44;;;;;;;28.55;14.85;;;;;;;1.76;67.02;97359.44;1731097;81;25710;-71
2022/12/21 00:56:11;;;;;;;30.12;16.00;;;;;;;1.79;67.08;97351.16;1730959;81;27412;-71
2022/12/21 00:58:39;;;;;;;27.62;15.75;;;;;;;1.79;67.14;97351.16;1730833;81;25823;-71
2022/12/21 01:01:11;;;;;;;30.50;17.12;;;;;;;1.79;67.21;97347.16;1730931;81;25864;-72
2022/12/21 01:03:38;;;;;;;27.77;16.25;;;;;;;1.79;67.16;97347.66;1731037;81;26617;-72
2022/12/21 01:06:05;;;;;;;31.57;17.42;;;;;;;1.81;67.27;97354.46;1730599;81;25467;-72
2022/12/21 01:08:32;;;;;;;36.00;18.77;;;;;;;1.85;67.33;97335.52;1730988;81;27358;-69
2022/12/21 01:11:02;;;;;;;33.10;17.82;;;;;;;1.75;67.36;97339.14;1730455;81;25823;-71
2022/12/21 01:13:32;;;;;;;36.38;18.07;;;;;;;1.66;67.44;97321.47;1733248;81;25855;-72
2022/12/21 01:15:59;;;;;;;45.43;21.62;;;;;;;1.61;67.60;97337.06;1746070;81;25814;-71
2022/12/21 01:18:26;;;;;;;28.47;15.38;;;;;;;1.57;67.68;97344.20;1746446;80;25806;-72
2022/12/21 01:20:55;;;;;;;25.80;14.47;;;;;;;1.57;68.02;97317.07;1791376;77;28189;-71
2022/12/21 01:23:23;;;;;;;28.50;14.87;;;;;;;1.70;68.39;97307.33;1794979;77;25766;-69
2022/12/21 01:25:51;;;;;;;28.20;14.68;;;;;;;1.80;68.54;97304.92;1812655;77;25762;-72
2022/12/21 01:28:18;;;;;;;27.85;15.95;;;;;;;1.92;68.69;97296.65;1798105;77;25869;-71
2022/12/21 01:30:45;;;;;;;26.00;14.95;;;;;;;2.01;68.74;97306.33;1795130;78;25810;-71
2022/12/21 01:33:19;;;;;;;29.80;16.10;;;;;;;2.08;68.85;97302.02;1795121;78;27481;-70
2022/12/21 01:35:46;;;;;;;26.50;14.90;;;;;;;2.17;68.76;97314.39;1801489;78;25454;-71
2022/12/21 01:38:14;;;;;;;26.90;15.05;;;;;;;2.27;68.83;97315.08;1810883;78;25653;-71
2022/12/21 01:40:41;;;;;;;29.30;14.87;;;;;;;2.33;68.83;97317.58;1794986;77;26478;-72
2022/12/21 01:43:18;;;;;;;24.02;13.68;;;;;;;2.39;68.74;97310.29;1795242;78;25743;-70
2022/12/21 01:45:50;;;;;;;27.25;14.53;;;;;;;2.46;68.72;97310.80;1801453;79;27443;-70
2022/12/21 01:48:18;;;;;;;24.50;13.38;;;;;;;2.52;68.72;97301.33;1807876;79;28437;-71
2022/12/21 01:50:56;;;;;;;26.50;14.73;;;;;;;2.54;68.66;97304.14;1807681;79;25766;-70
2022/12/21 01:53:33;;;;;;;26.87;14.80;;;;;;;2.57;68.68;97296.82;1804521;79;25871;-71
2022/12/21 01:56:04;;;;;;;29.27;15.35;;;;;;;2.60;68.69;97291.17;1805840;79;26136;-69
2022/12/21 01:58:33;;;;;;;26.65;13.78;;;;;;;2.63;68.72;97283.69;1807586;79;45527;-70
2022/12/21 02:01:01;;;;;;;25.68;13.90;;;;;;;2.66;68.70;97290.50;1784914;79;25853;-71
2022/12/21 02:03:33;;;;;;;22.42;13.53;;;;;;;2.67;68.70;97285.50;1807717;79;25880;-71
2022/12/21 02:06:08;;;;;;;22.15;12.75;;;;;;;2.67;68.92;97281.50;1752927;81;25856;-70
2022/12/21 02:08:35;;;;;;;23.70;13.80;;;;;;;2.67;68.84;97273.52;1753184;81;25464;-70
2022/12/21 02:11:04;;;;;;;21.77;12.75;;;;;;;2.68;68.93;97266.69;1752786;81;27528;-71
2022/12/21 02:13:30;;;;;;;20.00;11.50;;;;;;;2.72;68.96;97261.87;1752147;81;25789;-71
2022/12/21 02:16:17;;;;;;;21.90;12.28;;;;;;;2.73;68.98;97251.55;1736452;81;25709;-73
2022/12/21 02:19:14;;;;;;;19.20;11.05;;;;;;;2.76;69.02;97253.39;1648294;85;25811;-71
2022/12/21 02:21:53;;;;;;;22.48;11.55;;;;;;;2.79;69.01;97246.86;1648223;85;25819;-71
2022/12/21 02:24:52;;;;;;;19.50;12.07;;;;;;;2.83;69.05;97237.55;1660096;84;28154;-72
2022/12/21 02:28:04;;;;;;;19.23;11.48;;;;;;;2.85;69.00;97234.22;1673866;84;25705;-74
2022/12/21 02:31:12;;;;;;;18.77;11.05;;;;;;;2.89;69.02;97240.39;1673053;84;25796;-73
2022/12/21 02:34:09;;;;;;;20.30;11.70;;;;;;;2.93;69.02;97237.37;1624291;88;25923;-71
2022/12/21 02:36:41;;;;;;;20.90;11.83;;;;;;;2.94;69.07;97240.37;1624594;88;25851;-72
2022/12/21 02:39:36;;;;;;;19.12;11.08;;;;;;;2.94;69.09;97237.20;1621579;87;28372;-72
2022/12/21 02:44:12;;;;;;;20.57;12.28;;;;;;;2.95;69.19;97242.03;1624545;86;25896;-73
2022/12/21 02:44:51;;;;;;;21.17;12.28;;;;;;;2.94;69.17;97237.20;1618210;88;25842;-75
2022/12/21 02:47:41;;;;;;;19.67;12.15;;;;;;;2.94;69.31;97233.20;1577920;89;25766;-72
2022/12/21 02:50:15;;;;;;;21.37;11.88;;;;;;;2.94;69.33;97232.37;1578573;89;25957;-72
2022/12/21 02:52:53;;;;;;;22.07;13.32;;;;;;;2.94;69.38;97226.54;1580758;89;27419;-72
2022/12/21 02:55:19;;;;;;;22.48;11.95;;;;;;;2.96;69.42;97224.55;1588843;87;25843;-74
2022/12/21 02:57:46;;;;;;;19.95;11.53;;;;;;;2.96;69.49;97235.20;1659471;86;25819;-72
2022/12/21 03:00:17;;;;;;;23.20;12.37;;;;;;;2.95;69.53;97229.54;1659141;86;25771;-72
2022/12/21 03:06:27;;;;;;;20.80;12.23;;;;;;;2.97;69.64;97230.21;1686871;85;27834;-72
2022/12/21 03:09:31;;;;;;;21.35;12.63;;;;;;;2.99;69.69;97217.55;1664219;84;25808;-73
2022/12/21 03:12:20;;;;;;;22.75;13.08;;;;;;;3.00;69.77;97211.22;1704423;82;25802;-72
2022/12/21 03:15:28;;;;;;;18.70;11.45;;;;;;;3.01;69.83;97204.88;1663932;85;25690;-73
2022/12/21 03:18:09;;;;;;;21.17;12.28;;;;;;;3.03;69.87;97222.02;1656318;86;25889;-74
2022/12/21 03:20:53;;;;;;;20.85;11.75;;;;;;;3.03;69.92;97221.52;1654257;86;27395;-73
2022/12/21 03:23:36;;;;;;;19.70;11.68;;;;;;;3.02;70.06;97229.19;1672752;84;26033;-74
2022/12/21 03:26:08;;;;;;;19.17;11.55;;;;;;;3.01;70.06;97212.05;1707763;83;25732;-74
2022/12/21 03:28:38;;;;;;;20.27;11.25;;;;;;;2.98;70.17;97202.55;1701730;83;32999;-76
2022/12/21 03:31:10;;;;;;;20.48;10.63;;;;;;;2.99;70.25;97187.38;1701356;84;25885;-74
2022/12/21 03:33:42;;;;;;;19.65;11.53;;;;;;;2.99;70.39;97198.88;1670029;85;28460;-75
2022/12/21 03:36:14;;;;;;;20.45;11.15;;;;;;;3.02;70.46;97206.52;1667161;85;25799;-73
2022/12/21 03:38:49;;;;;;;16.02;9.80;;;;;;;3.03;70.54;97214.86;1666682;85;25947;-73
2022/12/21 03:41:33;;;;;;;17.20;10.75;;;;;;;3.06;70.62;97202.52;1636876;86;25730;-73
2022/12/21 03:44:03;;;;;;;17.20;10.48;;;;;;;3.08;70.65;97213.86;1599486;88;26708;-73
2022/12/21 03:46:50;;;;;;;20.40;11.43;;;;;;;3.07;70.71;97216.19;1664234;84;28210;-73
2022/12/21 03:49:30;;;;;;;18.37;11.03;;;;;;;3.07;70.69;97211.36;1604565;88;25913;-74
2022/12/21 03:52:13;;;;;;;19.92;11.60;;;;;;;3.06;70.67;97215.86;1547545;92;25862;-74
2022/12/21 03:54:58;;;;;;;22.58;11.93;;;;;;;3.06;70.67;97217.19;1541994;92;25817;-73
2022/12/21 03:57:26;;;;;;;20.90;12.25;;;;;;;3.04;70.65;97215.19;1544233;92;25803;-76
2022/12/21 03:59:56;;;;;;;22.00;11.80;;;;;;;3.01;70.69;97213.38;1552536;92;27441;-76
2022/12/21 04:02:46;;;;;;;19.67;11.75;;;;;;;3.00;70.79;97209.88;1547867;92;25860;-72
2022/12/21 04:05:46;;;;;;;22.32;12.07;;;;;;;3.00;70.84;97213.88;1551814;92;25345;-73
2022/12/21 04:08:12;;;;;;;21.30;12.07;;;;;;;3.01;70.90;97210.22;1541228;92;25945;-72
2022/12/21 04:10:39;;;;;;;19.87;12.23;;;;;;;3.00;71.06;97203.22;1548740;92;26070;-75
2022/12/21 04:13:06;;;;;;;20.30;12.20;;;;;;;2.97;70.91;97202.21;1552014;92;27396;-71
2022/12/21 04:19:57;;;;;;;22.17;12.65;;;;;;;2.95;70.96;97201.55;1546155;91;25747;-75
2022/12/21 04:20:46;;;;;;;24.43;13.60;;;;;;;2.95;71.03;97214.04;1560596;90;26453;-73
2022/12/21 04:28:42;;;;;;;23.73;13.38;;;;;;;2.85;71.05;97210.22;1568079;89;25585;-72
2022/12/21 04:31:09;;;;;;;22.95;12.58;;;;;;;2.85;71.09;97216.39;1568204;90;25353;-72
2022/12/21 04:33:35;;;;;;;21.90;13.03;;;;;;;2.86;71.08;97217.22;1568152;89;25736;-73
2022/12/21 04:38:47;;;;;;;25.27;13.43;;;;;;;2.83;71.21;97222.88;1569423;89;28474;-73
2022/12/21 04:41:13;;;;;;;22.10;12.78;;;;;;;2.84;71.30;97224.55;1569346;89;25872;-73
2022/12/21 04:43:41;;;;;;;24.10;13.65;;;;;;;2.80;71.24;97220.55;1569637;89;25841;-73
2022/12/21 04:46:12;;;;;;;18.07;11.48;;;;;;;2.77;71.27;97210.23;1597781;87;26337;-72
2022/12/21 04:48:38;;;;;;;23.77;12.73;;;;;;;2.74;71.28;97224.73;1712904;80;25770;-72
2022/12/21 04:51:12;;;;;;;20.75;12.07;;;;;;;2.72;71.37;97216.06;1733227;80;28233;-72
2022/12/21 04:53:39;;;;;;;22.67;12.95;;;;;;;2.73;71.42;97220.39;1733082;80;25738;-74
2022/12/21 04:56:06;;;;;;;24.02;13.00;;;;;;;2.74;71.49;97222.56;1732808;80;25788;-72
2022/12/21 04:58:33;;;;;;;20.23;12.25;;;;;;;2.75;71.53;97225.56;1758594;78;25770;-72
2022/12/21 05:01:02;;;;;;;20.62;12.53;;;;;;;2.72;71.66;97213.39;1737495;78;25756;-73
2022/12/21 05:03:29;;;;;;;20.37;13.25;;;;;;;2.72;71.72;97212.06;1733061;79;27375;-72
2022/12/21 05:06:00;;;;;;;19.57;13.18;;;;;;;2.72;71.71;97207.23;1732961;80;25772;-72
2022/12/21 05:08:28;;;;;;;22.15;12.53;;;;;;;2.73;71.71;97195.57;1753311;78;25688;-72
2022/12/21 05:10:54;;;;;;;21.60;14.03;;;;;;;2.72;71.81;97206.73;1742682;80;25682;-72
2022/12/21 05:13:21;;;;;;;20.88;11.85;;;;;;;2.68;71.79;97217.38;1733130;78;25786;-74
2022/12/21 05:15:48;;;;;;;21.23;13.08;;;;;;;2.66;71.80;97230.53;1732942;80;27362;-72
2022/12/21 05:18:14;;;;;;;26.42;14.80;;;;;;;2.65;71.82;97231.56;1745665;79;25653;-75
2022/12/21 05:20:42;;;;;;;26.42;14.18;;;;;;;2.62;71.72;97222.06;1748874;79;25666;-73
2022/12/21 05:23:09;;;;;;;24.12;13.85;;;;;;;2.57;71.62;97227.54;1742968;79;25740;-74
2022/12/21 05:25:36;;;;;;;24.27;13.43;;;;;;;2.52;71.62;97231.55;1751144;81;25820;-72
2022/12/21 05:28:02;;;;;;;27.32;12.85;;;;;;;2.49;71.64;97231.88;1740673;79;28029;-72
2022/12/21 05:30:29;;;;;;;25.92;13.88;;;;;;;2.45;71.63;97233.69;1753908;81;25726;-72
2022/12/21 05:32:56;;;;;;;26.42;13.43;;;;;;;2.43;71.75;97234.34;1758207;79;25660;-71
2022/12/21 05:35:22;;;;;;;23.80;13.98;;;;;;;2.42;71.87;97236.18;1736727;81;25680;-72
2022/12/21 05:37:49;;;;;;;25.40;14.40;;;;;;;2.42;72.01;97231.34;1736788;80;25673;-72
2022/12/21 05:40:16;;;;;;;22.85;12.55;;;;;;;2.44;72.13;97244.84;1759874;79;27359;-72
2022/12/21 05:42:42;;;;;;;20.97;12.47;;;;;;;2.48;72.17;97251.52;1755878;81;25232;-71
2022/12/21 05:45:12;;;;;;;23.62;13.05;;;;;;;2.50;72.23;97245.53;1757450;79;26679;-72
2022/12/21 05:47:38;;;;;;;23.57;13.05;;;;;;;2.49;72.28;97247.86;1736687;81;25851;-72
2022/12/21 05:50:07;;;;;;;22.82;11.88;;;;;;;2.46;72.50;97253.52;1755265;79;25800;-72
2022/12/21 05:52:33;;;;;;;22.27;13.30;;;;;;;2.46;72.53;97253.52;1738915;80;27352;-71
2022/12/21 05:55:00;;;;;;;23.80;13.18;;;;;;;2.48;72.55;97259.52;1736759;80;25641;-72
2022/12/21 05:57:26;;;;;;;20.77;13.20;;;;;;;2.52;72.52;97253.37;1762298;79;25759;-71
2022/12/21 05:59:53;;;;;;;22.20;12.88;;;;;;;2.53;72.55;97249.20;1753820;81;25670;-73
2022/12/21 06:02:20;;;;;;;21.48;12.35;;;;;;;2.53;72.54;97243.88;1759494;79;25690;-74
2022/12/21 06:04:46;;;;;;;18.73;12.25;;;;;;;2.57;72.66;97250.19;1760339;79;27349;-73
2022/12/21 06:07:13;;;;;;;23.30;13.78;;;;;;;2.58;72.60;97251.86;1761067;79;26401;-72
2022/12/21 06:09:40;;;;;;;22.40;13.40;;;;;;;2.60;72.62;97248.03;1783442;79;25769;-73
2022/12/21 06:12:07;;;;;;;22.85;13.93;;;;;;;2.62;72.57;97241.22;1783638;80;26449;-72
2022/12/21 06:14:33;;;;;;;26.00;16.50;;;;;;;2.64;72.57;97247.22;1754010;80;25699;-72
2022/12/21 06:17:00;;;;;;;23.47;14.47;;;;;;;2.65;72.59;97243.55;1748503;80;27452;-72
2022/12/21 06:19:27;;;;;;;17.90;11.78;;;;;;;2.65;72.55;97238.22;1746791;80;25723;-73
2022/12/21 06:21:53;;;;;;;21.55;12.88;;;;;;;2.66;72.65;97234.53;1746896;80;25672;-72
2022/12/21 06:24:21;;;;;;;21.77;12.98;;;;;;;2.67;72.61;97240.20;1747030;80;25883;-72
2022/12/21 06:26:48;;;;;;;22.25;12.85;;;;;;;2.68;72.54;97248.03;1766969;80;25827;-74
2022/12/21 06:29:14;;;;;;;20.80;13.32;;;;;;;2.67;72.52;97252.19;1748362;80;27358;-72
2022/12/21 06:31:41;;;;;;;22.67;13.93;;;;;;;2.67;72.53;97254.36;1746821;80;25446;-71
2022/12/21 06:34:13;;;;;;;20.68;13.05;;;;;;;2.67;72.54;97257.52;1746900;80;25700;-74
2022/12/21 06:36:40;;;;;;;20.65;12.85;;;;;;;2.68;72.56;97255.19;1747034;80;35147;-75
2022/12/21 06:39:06;;;;;;;22.25;13.45;;;;;;;2.69;72.60;97246.20;1746856;80;25245;-75
2022/12/21 06:41:33;;;;;;;20.92;12.78;;;;;;;2.70;72.60;97246.53;1746999;80;27378;-73
2022/12/21 06:44:00;;;;;;;21.23;13.10;;;;;;;2.71;72.60;97245.04;1746901;80;25806;-74
2022/12/21 06:46:26;;;;;;;21.33;13.00;;;;;;;2.72;72.56;97253.88;1746805;80;25716;-70
2022/12/21 06:48:54;;;;;;;24.72;12.63;;;;;;;2.71;72.57;97260.20;1746806;80;26457;-72
2022/12/21 06:51:23;;;;;;;21.65;13.65;;;;;;;2.69;72.55;97256.36;1746847;80;25856;-71
2022/12/21 06:53:52;;;;;;;26.42;14.58;;;;;;;2.68;72.58;97252.53;1746827;80;27391;-71
2022/12/21 06:56:26;;;;;;;25.70;15.18;;;;;;;2.68;72.64;97253.86;1746803;80;25891;-72
2022/12/21 06:58:54;;;;;;;23.12;14.80;;;;;;;2.71;72.62;97260.20;1746856;80;25746;-71
2022/12/21 07:01:28;;;;;;;24.92;13.90;;;;;;;2.72;72.66;97256.54;1746735;80;26539;-71
2022/12/21 07:03:55;;;;;;;25.02;14.80;;;;;;;2.71;72.62;97269.03;1746871;80;25876;-71
2022/12/21 07:06:25;;;;;;;24.87;14.63;;;;;;;2.69;72.58;97262.19;1746602;80;27435;-70
2022/12/21 07:08:52;;;;;;;25.10;14.28;;;;;;;2.68;72.63;97271.18;1746989;80;25684;-71
2022/12/21 07:11:22;;;;;;;30.75;18.12;;;;;;;2.66;72.69;97269.17;1746818;80;25678;-72
2022/12/21 07:13:51;;;;;;;30.75;17.12;;;;;;;2.65;72.72;97267.54;1746753;80;25741;-71
2022/12/21 07:16:19;;;;;;;35.28;20.05;;;;;;;2.65;72.71;97267.04;1736884;80;25740;-72
2022/12/21 07:18:46;;;;;;;29.23;18.32;;;;;;;2.65;72.79;97273.70;1730018;80;27448;-73
2022/12/21 07:21:16;;;;;;;33.48;20.12;;;;;;;2.68;72.87;97268.02;1730213;80;25713;-72
2022/12/21 07:23:44;;;;;;;29.55;17.12;;;;;;;2.70;72.83;97265.20;1730275;80;25707;-70
2022/12/21 07:26:20;;;;;;;30.75;17.23;;;;;;;2.70;72.80;97263.36;1763799;80;25970;-70
2022/12/21 07:28:48;;;;;;;28.12;15.13;;;;;;;2.71;72.85;97259.70;1755221;80;25667;-71
2022/12/21 07:31:19;;;;;;;29.42;16.32;;;;;;;2.73;72.92;97263.53;1730499;80;27419;-71
2022/12/21 07:33:46;;;;;;;35.48;19.70;;;;;;;2.76;72.97;97245.89;1741565;80;25664;-71
2022/12/21 07:36:16;;;;;;;39.65;22.15;;;;;;;2.81;73.03;97251.53;1736842;80;25743;-72
2022/12/21 07:38:43;;;;;;;43.45;24.82;;;;;;;2.87;73.08;97241.55;1730147;80;25736;-72
2022/12/21 07:41:13;;;;;;;24.40;13.25;;;;;;;2.93;73.06;97256.86;1730336;80;25759;-72
2022/12/21 07:43:40;;;;;;;22.55;14.28;;;;;;;2.99;73.06;97249.55;1730515;80;28231;-73
2022/12/21 07:46:07;;;;;;;25.35;14.63;;;;;;;3.05;73.02;97256.86;1745336;80;25739;-72
2022/12/21 07:48:35;;;;;;;24.47;14.80;;;;;;;3.10;73.02;97261.20;1745686;79;25619;-72
2022/12/21 07:51:02;;;;;;;27.82;16.57;;;;;;;3.15;72.95;97256.17;1730382;79;26482;-72
2022/12/21 07:53:29;;;;;;;19.15;12.60;;;;;;;3.17;72.89;97250.17;1730328;79;25743;-71
2022/12/21 07:56:06;;;;;;;20.57;12.35;;;;;;;3.19;72.81;97253.52;1730129;79;27422;-71
2022/12/21 07:58:34;;;;;;;24.85;13.38;;;;;;;3.23;72.74;97250.85;1730321;79;25936;-72
2022/12/21 08:01:06;;;;;;;21.35;11.60;;;;;;;3.24;72.70;97238.34;1730433;79;25395;-72
2022/12/21 08:03:35;;;;;;;;;;;;;;;3.25;72.63;97225.34;1732991;79;25739;-71
2022/12/21 08:06:02;;;;;;;19.17;11.75;;;;;;;3.26;72.62;97221.14;1761280;79;25417;-74
2022/12/21 08:08:29;;;;;;;21.12;12.35;;;;;;;3.28;72.65;97232.15;1730331;79;27370;-74
2022/12/21 08:10:55;;;;;;;26.95;14.95;;;;;;;3.30;72.63;97222.98;1732636;79;25703;-72
2022/12/21 08:13:22;;;;;;;21.68;13.38;;;;;;;3.32;72.64;97220.14;1758507;79;25669;-72
2022/12/21 08:15:49;;;;;;;26.37;16.02;;;;;;;3.36;72.58;97232.16;1727777;80;25687;-73
2022/12/21 08:18:15;;;;;;;28.17;15.50;;;;;;;3.40;72.60;97228.12;1750503;80;25681;-73
2022/12/21 08:20:45;;;;;;;20.52;12.50;;;;;;;3.42;72.55;97232.79;1734186;80;27384;-73
2022/12/21 08:23:12;;;;;;;24.47;14.18;;;;;;;3.44;72.49;97231.63;1721506;80;25821;-74
2022/12/21 08:25:38;;;;;;;26.35;14.75;;;;;;;3.47;72.52;97220.61;1721663;80;25681;-74
2022/12/21 08:28:05;;;;;;;21.65;13.35;;;;;;;3.50;72.53;97230.92;1721550;80;25667;-73
2022/12/21 08:30:33;;;;;;;20.68;11.35;;;;;;;3.51;72.52;97238.42;1721684;80;25666;-72
2022/12/21 08:32:59;;;;;;;20.05;12.50;;;;;;;3.53;72.47;97231.09;1721619;80;27413;-73
2022/12/21 08:35:29;;;;;;;20.52;11.97;;;;;;;3.57;72.48;97242.59;1721428;80;25697;-76
2022/12/21 08:37:55;;;;;;;20.95;12.00;;;;;;;3.62;72.44;97236.75;1721232;81;25738;-74
2022/12/21 08:40:22;;;;;;;21.62;12.55;;;;;;;3.65;72.42;97223.04;1745799;80;26519;-73
2022/12/21 08:42:49;;;;;;;18.00;11.55;;;;;;;3.69;72.35;97224.38;1739091;80;25855;-74
2022/12/21 08:45:16;;;;;;;17.62;10.93;;;;;;;3.73;72.34;97226.20;1721574;80;27362;-73
2022/12/21 08:47:42;;;;;;;18.55;11.20;;;;;;;3.77;72.27;97222.99;1721429;81;25737;-73
2022/12/21 08:50:09;;;;;;;15.50;10.35;;;;;;;3.82;72.21;97229.99;1721606;81;25935;-73
2022/12/21 08:52:36;;;;;;;21.02;11.90;;;;;;;3.87;72.15;97217.44;1721389;81;25670;-73
2022/12/21 08:55:02;;;;;;;22.95;13.68;;;;;;;3.88;72.09;97214.59;1736556;81;25690;-73
2022/12/21 08:57:29;;;;;;;20.10;12.95;;;;;;;3.90;72.15;97220.60;1724504;81;27369;-73
2022/12/21 08:59:55;;;;;;;20.05;11.43;;;;;;;3.94;72.11;97209.91;1722572;81;25710;-72
2022/12/21 09:02:22;;;;;;;20.95;12.35;;;;;;;3.96;72.00;97212.41;1727838;80;25344;-72
2022/12/21 09:04:49;;;;;;;24.30;11.03;;;;;;;4.01;71.97;97206.52;1779149;80;25762;-72
2022/12/21 09:07:16;;;;;;;19.25;11.73;;;;;;;4.07;71.91;97201.83;1779354;80;25697;-73
2022/12/21 09:09:44;;;;;;;18.57;11.30;;;;;;;4.14;71.92;97185.41;1778357;80;27362;-73
2022/12/21 09:12:11;;;;;;;17.75;10.53;;;;;;;4.21;71.97;97174.37;1779373;80;25765;-75
2022/12/21 09:14:38;;;;;;;16.90;10.58;;;;;;;4.29;71.90;97184.99;1778151;79;25256;-73
2022/12/21 09:17:04;;;;;;;20.30;11.55;;;;;;;4.33;71.83;97190.32;1788261;79;25712;-72
2022/12/21 09:19:31;;;;;;;21.45;12.43;;;;;;;4.38;71.68;97173.23;1793489;79;25864;-76
2022/12/21 09:21:58;;;;;;;23.05;13.18;;;;;;;4.42;71.68;97167.87;1794560;79;28170;-74
2022/12/21 09:24:24;;;;;;;21.37;12.45;;;;;;;4.45;71.73;97166.18;1772870;79;25644;-74
2022/12/21 09:26:51;;;;;;;22.45;12.93;;;;;;;4.44;71.51;97155.16;1755892;80;25731;-73
2022/12/21 09:29:19;;;;;;;20.00;13.25;;;;;;;4.45;71.37;97161.34;1768768;80;25920;-74
2022/12/21 09:31:45;;;;;;;22.30;13.45;;;;;;;4.43;71.35;97158.84;1765146;80;25691;-76
2022/12/21 09:34:12;;;;;;;22.82;13.72;;;;;;;4.43;71.32;97157.50;1767374;80;27424;-76
2022/12/21 09:36:39;;;;;;;23.38;13.65;;;;;;;4.43;71.33;97150.83;1769053;80;25780;-75
2022/12/21 09:39:05;;;;;;;22.07;13.88;;;;;;;4.40;71.27;97151.67;1756762;80;25664;-75
2022/12/21 09:41:40;;;;;;;22.27;13.22;;;;;;;4.39;71.32;97154.02;1769101;80;26449;-76
2022/12/21 09:44:34;;;;;;;21.07;12.28;;;;;;;4.35;71.28;97154.37;1718486;82;25932;-76
2022/12/21 09:47:05;;;;;;;21.82;12.23;;;;;;;4.31;71.30;97145.57;1725054;82;27389;-75
2022/12/21 09:49:54;;;;;;;24.82;14.58;;;;;;;4.28;71.32;97148.59;1725660;82;25907;-74
2022/12/21 09:52:26;;;;;;;21.55;12.30;;;;;;;4.29;71.40;97146.25;1711026;82;25829;-74
2022/12/21 09:55:07;;;;;;;21.70;13.25;;;;;;;4.32;71.41;97130.70;1668536;85;32473;-71
2022/12/21 09:57:35;;;;;;;21.45;13.50;;;;;;;4.37;71.39;97136.83;1676509;85;25849;-72
2022/12/21 10:00:08;;;;;;;20.85;12.63;;;;;;;4.41;71.41;97161.36;1679481;85;27475;-74
2022/12/21 10:03:00;;;;;;;22.55;12.43;;;;;;;4.46;71.34;97137.61;1665475;86;25316;-74
2022/12/21 10:05:52;;;;;;;18.25;11.43;;;;;;;4.50;71.36;97135.72;1665556;86;32606;-74
2022/12/21 10:08:42;;;;;;;17.57;10.28;;;;;;;4.55;71.23;97121.83;1653222;86;25996;-74
2022/12/21 10:11:38;;;;;;;17.32;10.68;;;;;;;4.58;71.08;97130.33;1659099;86;25811;-73
2022/12/21 10:14:29;;;;;;;17.57;10.15;;;;;;;4.62;71.08;97124.92;1652151;86;27423;-73
2022/12/21 10:17:22;;;;;;;23.35;12.55;;;;;;;4.67;71.01;97139.09;1674987;84;25834;-74
2022/12/21 10:20:26;;;;;;;22.20;11.97;;;;;;;4.69;70.95;97125.88;1683382;84;25787;-74
2022/12/21 10:22:58;;;;;;;21.40;11.15;;;;;;;4.71;70.90;97119.81;1642986;86;26585;-74
2022/12/21 10:25:33;;;;;;;19.10;11.73;;;;;;;4.72;70.85;97112.63;1650938;86;32324;-73
2022/12/21 10:28:35;;;;;;;23.35;12.93;;;;;;;4.73;70.79;97123.65;1638803;87;27411;-73
2022/12/21 10:31:11;;;;;;;16.87;10.40;;;;;;;4.70;70.86;97124.87;1663096;86;25292;-76
2022/12/21 10:33:42;;;;;;;13.78;9.10;;;;;;;4.68;70.96;97126.05;1646846;86;25808;-75
2022/12/21 10:36:22;;;;;;;15.30;8.98;;;;;;;4.64;71.16;97122.07;1514994;92;26548;-76
2022/12/21 10:38:49;;;;;;;17.15;10.00;;;;;;;4.65;71.25;97129.91;1520979;94;25760;-75
2022/12/21 10:41:23;;;;;;;15.35;9.10;;;;;;;4.66;71.49;97125.40;1489504;94;28049;-75
2022/12/21 10:43:53;;;;;;;13.65;8.80;;;;;;;4.69;71.49;97131.73;1488948;95;25977;-75
2022/12/21 10:46:20;;;;;;;14.13;8.63;;;;;;;4.73;71.51;97119.64;1450143;97;26059;-75
2022/12/21 10:48:51;;;;;;;14.45;8.65;;;;;;;4.78;71.36;97112.42;1469270;97;26681;-75
2022/12/21 10:51:34;;;;;;;17.87;10.70;;;;;;;4.79;71.27;97109.56;1466389;95;25962;-76
2022/12/21 10:54:05;;;;;;;20.25;10.85;;;;;;;4.79;71.21;97115.42;1509140;93;27409;-75
2022/12/21 10:56:36;;;;;;;19.07;10.98;;;;;;;4.77;71.20;97113.43;1512602;93;25856;-75
2022/12/21 10:59:30;;;;;;;17.40;10.35;;;;;;;4.79;71.20;97113.58;1451551;97;25956;-73
2022/12/21 11:01:57;;;;;;;21.00;10.78;;;;;;;4.82;71.11;97111.05;1451441;97;25954;-73
2022/12/21 11:04:28;;;;;;;21.97;11.43;;;;;;;4.83;71.11;97107.37;1451668;97;25873;-74
2022/12/21 11:07:24;;;;;;;19.05;11.53;;;;;;;4.85;71.09;97103.98;1448748;97;27498;-75
2022/12/21 11:10:06;;;;;;;21.27;11.28;;;;;;;4.84;71.20;97096.97;1413969;100;25962;-76
2022/12/21 11:12:33;;;;;;;25.97;13.08;;;;;;;4.81;71.25;97097.36;1447136;98;25922;-75
2022/12/21 11:15:05;;;;;;;24.98;13.22;;;;;;;4.84;71.33;97098.30;1447326;98;25906;-75
2022/12/21 11:17:33;;;;;;;26.40;15.25;;;;;;;4.85;71.47;97094.62;1444423;98;25933;-78
2022/12/21 11:20:19;;;;;;;34.13;17.37;;;;;;;4.84;71.42;97097.80;1447509;98;27466;-75
2022/12/21 11:22:50;;;;;;;38.13;21.00;;;;;;;4.85;71.47;97095.95;1422982;99;25826;-77
2022/12/21 11:25:24;;;;;;;34.83;18.92;;;;;;;4.85;71.34;97097.30;1446842;97;25953;-78
2022/12/21 11:28:00;;;;;;;34.70;20.65;;;;;;;4.83;71.62;97095.33;1410361;100;25879;-75
2022/12/21 11:30:34;;;;;;;32.80;18.85;;;;;;;4.81;71.75;97090.67;1433218;99;25966;-75
2022/12/21 11:33:02;;;;;;;37.05;21.68;;;;;;;4.78;71.59;97085.17;1438661;97;27470;-75
2022/12/21 11:35:36;;;;;;;39.85;21.27;;;;;;;4.78;71.57;97089.69;1473287;91;25864;-75
2022/12/21 11:38:13;;;;;;;36.95;20.60;;;;;;;4.78;71.72;97088.36;1584068;89;25874;-75
2022/12/21 11:40:56;;;;;;;34.25;19.90;;;;;;;4.79;71.68;97088.68;1566631;90;26506;-74
2022/12/21 11:43:22;;;;;;;32.85;18.17;;;;;;;4.80;71.65;97091.68;1558346;90;25992;-75
2022/12/21 11:46:09;;;;;;;31.33;17.52;;;;;;;4.78;71.64;97093.70;1539358;91;27459;-75
2022/12/21 11:49:24;;;;;;;33.10;18.20;;;;;;;4.80;71.77;97087.67;1555001;91;25842;-75
2022/12/21 11:52:29;;;;;;;31.20;18.42;;;;;;;4.81;71.67;97091.50;1557575;91;25716;-75
2022/12/21 11:55:04;;;;;;;31.95;18.25;;;;;;;4.84;71.70;97084.93;1543864;91;25701;-75
2022/12/21 11:58:18;;;;;;;33.05;18.50;;;;;;;4.84;71.64;97088.94;1547707;91;25348;-74
2022/12/21 12:01:15;;;;;;;43.13;22.50;;;;;;;4.85;71.50;97083.92;1523157;93;27368;-75
2022/12/21 12:04:05;;;;;;;32.80;18.37;;;;;;;4.83;71.52;97088.65;1500640;94;25842;-77
2022/12/21 12:06:49;;;;;;;31.68;18.20;;;;;;;4.84;71.53;97087.61;1483639;96;25906;-74